sensor_id;sensor_type;location;lat;lon;timestamp;pressure;altitude;pressure_sealevel;temperature;humidity
39141;BME280;24875;48.436;10.298;2023-12-20T00:00:41;96253.16;;;6.73;100.00
39141;BME280;24875;48.436;10.298;2023-12-20T00:03:07;96254.81;;;6.74;100.00
39141;BME280;24875;48.436;10.298;2023-12-20T00:05:34;96252.56;;;7.04;100.00
39141;BME280;24875;48.436;10.298;2023-12-20T00:08:04;96256.63;;;6.99;100.00
39141;BME280;24875;48.436;10.298;2023-12-20T00:10:30;96251.03;;;6.94;100.00
39141;BME280;24875;48.436;10.298;2023-12-20T00:12:57;96267.03;;;6.91;100.00
39141;BME280;24875;48.436;10.298;2023-12-20T00:15:24;96279.88;;;7.02;100.00
39141;BME280;24875;48.436;10.298;2023-12-20T00:17:51;96276.50;;;6.84;100.00
39141;BME280;24875;48.436;10.298;2023-12-20T00:20:17;96271.72;;;7.05;100.00
39141;BME280;24875;48.436;10.298;2023-12-20T00:22:44;96267.72;;;6.93;100.00
39141;BME280;24875;48.436;10.298;2023-12-20T00:25:11;96266.47;;;7.05;100.00
39141;BME280;24875;48.436;10.298;2023-12-20T00:27:38;96275.31;;;7.04;100.00
39141;BME280;24875;48.436;10.298;2023-12-20T00:30:05;96272.69;;;7.04;100.00
39141;BME280;24875;48.436;10.298;2023-12-20T00:32:34;96266.03;;;7.09;100.00
39141;BME280;24875;48.436;10.298;2023-12-20T00:35:01;96258.97;;;7.10;100.00
39141;BME280;24875;48.436;10.298;2023-12-20T00:37:27;96259.34;;;7.15;100.00
39141;BME280;24875;48.436;10.298;2023-12-20T00:39:54;96256.91;;;6.96;100.00
39141;BME280;24875;48.436;10.298;2023-12-20T00:42:20;96254.38;;;6.78;100.00
39141;BME280;24875;48.436;10.298;2023-12-20T00:44:47;96240.69;;;6.92;100.00
39141;BME280;24875;48.436;10.298;2023-12-20T00:47:13;96249.38;;;6.93;100.00
39141;BME280;24875;48.436;10.298;2023-12-20T00:49:41;96243.81;;;6.96;100.00
39141;BME280;24875;48.436;10.298;2023-12-20T00:52:08;96239.47;;;6.79;100.00
39141;BME280;24875;48.436;10.298;2023-12-20T00:54:34;96246.09;;;6.91;100.00
39141;BME280;24875;48.436;10.298;2023-12-20T00:57:01;96247.69;;;6.84;100.00
39141;BME280;24875;48.436;10.298;2023-12-20T00:59:27;96240.25;;;6.97;100.00
39141;BME280;24875;48.436;10.298;2023-12-20T01:01:54;96232.41;;;7.05;100.00
39141;BME280;24875;48.436;10.298;2023-12-20T01:04:20;96230.13;;;7.02;100.00
39141;BME280;24875;48.436;10.298;2023-12-20T01:06:48;96216.06;;;7.03;100.00
39141;BME280;24875;48.436;10.298;2023-12-20T01:09:14;96218.16;;;6.99;100.00
39141;BME280;24875;48.436;10.298;2023-12-20T01:11:41;96213.94;;;6.81;100.00
39141;BME280;24875;48.436;10.298;2023-12-20T01:14:07;96212.56;;;6.69;100.00
39141;BME280;24875;48.436;10.298;2023-12-20T01:16:34;96189.28;;;6.58;100.00
39141;BME280;24875;48.436;10.298;2023-12-20T01:19:00;96194.03;;;6.88;100.00
39141;BME280;24875;48.436;10.298;2023-12-20T01:21:27;96194.59;;;6.74;100.00
39141;BME280;24875;48.436;10.298;2023-12-20T01:23:55;96185.19;;;6.89;100.00
39141;BME280;24875;48.436;10.298;2023-12-20T01:26:21;96189.31;;;6.66;100.00
39141;BME280;24875;48.436;10.298;2023-12-20T01:28:48;96183.16;;;6.75;100.00
39141;BME280;24875;48.436;10.298;2023-12-20T01:31:14;96189.50;;;6.98;100.00
39141;BME280;24875;48.436;10.298;2023-12-20T01:33:41;96183.22;;;6.91;100.00
39141;BME280;24875;48.436;10.298;2023-12-20T01:36:07;96187.84;;;6.97;100.00
39141;BME280;24875;48.436;10.298;2023-12-20T01:38:34;96182.03;;;6.77;100.00
39141;BME280;24875;48.436;10.298;2023-12-20T01:41:01;96179.63;;;6.92;100.00
39141;BME280;24875;48.436;10.298;2023-12-20T01:43:29;96192.19;;;6.80;100.00
39141;BME280;24875;48.436;10.298;2023-12-20T01:45:56;96180.94;;;6.88;100.00
39141;BME280;24875;48.436;10.298;2023-12-20T01:48:24;96190.13;;;6.92;100.00
39141;BME280;24875;48.436;10.298;2023-12-20T01:50:51;96206.16;;;6.89;100.00
39141;BME280;24875;48.436;10.298;2023-12-20T01:53:19;96199.97;;;6.98;100.00
39141;BME280;24875;48.436;10.298;2023-12-20T01:55:47;96211.28;;;6.73;100.00
39141;BME280;24875;48.436;10.298;2023-12-20T01:58:17;96207.13;;;6.88;100.00
39141;BME280;24875;48.436;10.298;2023-12-20T02:00:45;96211.91;;;6.67;100.00
39141;BME280;24875;48.436;10.298;2023-12-20T02:03:12;96200.72;;;6.57;100.00
39141;BME280;24875;48.436;10.298;2023-12-20T02:05:38;96206.22;;;6.54;100.00
39141;BME280;24875;48.436;10.298;2023-12-20T02:08:06;96207.22;;;6.53;100.00
39141;BME280;24875;48.436;10.298;2023-12-20T02:10:33;96209.88;;;6.36;100.00
39141;BME280;24875;48.436;10.298;2023-12-20T02:13:00;96211.06;;;6.41;100.00
39141;BME280;24875;48.436;10.298;2023-12-20T02:15:28;96195.66;;;6.38;100.00
39141;BME280;24875;48.436;10.298;2023-12-20T02:17:55;96201.13;;;6.27;100.00
39141;BME280;24875;48.436;10.298;2023-12-20T02:20:21;96192.19;;;6.12;100.00
39141;BME280;24875;48.436;10.298;2023-12-20T02:22:49;96191.72;;;6.34;100.00
39141;BME280;24875;48.436;10.298;2023-12-20T02:25:16;96192.28;;;5.86;100.00
39141;BME280;24875;48.436;10.298;2023-12-20T02:27:42;96200.78;;;6.05;100.00
39141;BME280;24875;48.436;10.298;2023-12-20T02:30:10;96199.94;;;6.22;100.00
39141;BME280;24875;48.436;10.298;2023-12-20T02:32:36;96196.22;;;6.07;100.00
39141;BME280;24875;48.436;10.298;2023-12-20T02:35:03;96199.72;;;6.15;100.00
39141;BME280;24875;48.436;10.298;2023-12-20T02:37:30;96204.22;;;6.05;100.00
39141;BME280;24875;48.436;10.298;2023-12-20T02:39:58;96198.41;;;6.11;100.00
39141;BME280;24875;48.436;10.298;2023-12-20T02:42:24;96197.66;;;6.02;100.00
39141;BME280;24875;48.436;10.298;2023-12-20T02:44:51;96203.72;;;6.02;100.00
39141;BME280;24875;48.436;10.298;2023-12-20T02:47:17;96207.13;;;5.85;100.00
39141;BME280;24875;48.436;10.298;2023-12-20T02:49:44;96207.13;;;5.68;100.00
39141;BME280;24875;48.436;10.298;2023-12-20T02:52:10;96210.88;;;5.83;100.00
39141;BME280;24875;48.436;10.298;2023-12-20T02:54:37;96206.97;;;5.87;100.00
39141;BME280;24875;48.436;10.298;2023-12-20T02:57:05;96215.31;;;6.00;100.00
39141;BME280;24875;48.436;10.298;2023-12-20T02:59:32;96223.47;;;5.70;100.00
39141;BME280;24875;48.436;10.298;2023-12-20T03:01:59;96221.22;;;5.84;100.00
39141;BME280;24875;48.436;10.298;2023-12-20T03:04:25;96221.16;;;5.67;100.00
39141;BME280;24875;48.436;10.298;2023-12-20T03:06:51;96226.72;;;5.81;100.00
39141;BME280;24875;48.436;10.298;2023-12-20T03:09:18;96223.91;;;5.65;100.00
39141;BME280;24875;48.436;10.298;2023-12-20T03:11:44;96225.69;;;5.65;100.00
39141;BME280;24875;48.436;10.298;2023-12-20T03:14:12;96227.25;;;5.85;100.00
39141;BME280;24875;48.436;10.298;2023-12-20T03:16:39;96218.88;;;5.81;100.00
39141;BME280;24875;48.436;10.298;2023-12-20T03:19:05;96217.94;;;5.73;100.00
39141;BME280;24875;48.436;10.298;2023-12-20T03:21:32;96215.19;;;5.74;100.00
39141;BME280;24875;48.436;10.298;2023-12-20T03:23:58;96214.97;;;5.85;100.00
39141;BME280;24875;48.436;10.298;2023-12-20T03:26:25;96216.19;;;5.91;100.00
39141;BME280;24875;48.436;10.298;2023-12-20T03:28:51;96215.44;;;5.98;100.00
39141;BME280;24875;48.436;10.298;2023-12-20T03:31:19;96218.72;;;6.00;100.00
39141;BME280;24875;48.436;10.298;2023-12-20T03:33:46;96204.69;;;5.84;100.00
39141;BME280;24875;48.436;10.298;2023-12-20T03:36:12;96205.25;;;5.78;100.00
39141;BME280;24875;48.436;10.298;2023-12-20T03:38:39;96210.22;;;5.81;100.00
39141;BME280;24875;48.436;10.298;2023-12-20T03:41:07;96214.25;;;5.93;100.00
39141;BME280;24875;48.436;10.298;2023-12-20T03:43:33;96219.44;;;5.75;100.00
39141;BME280;24875;48.436;10.298;2023-12-20T03:46:00;96215.47;;;5.71;100.00
39141;BME280;24875;48.436;10.298;2023-12-20T03:48:30;96213.78;;;5.80;100.00
39141;BME280;24875;48.436;10.298;2023-12-20T03:50:57;96216.72;;;5.77;100.00
39141;BME280;24875;48.436;10.298;2023-12-20T03:53:23;96214.91;;;5.77;100.00
39141;BME280;24875;48.436;10.298;2023-12-20T03:55:50;96213.22;;;5.86;100.00
39141;BME280;24875;48.436;10.298;2023-12-20T03:58:16;96210.50;;;5.78;100.00
39141;BME280;24875;48.436;10.298;2023-12-20T04:00:43;96211.06;;;5.72;100.00
39141;BME280;24875;48.436;10.298;2023-12-20T04:03:09;96214.09;;;5.77;100.00
39141;BME280;24875;48.436;10.298;2023-12-20T04:05:39;96203.03;;;5.83;100.00
39141;BME280;24875;48.436;10.298;2023-12-20T04:08:06;96207.22;;;5.76;100.00
39141;BME280;24875;48.436;10.298;2023-12-20T04:10:32;96214.34;;;5.74;100.00
39141;BME280;24875;48.436;10.298;2023-12-20T04:12:59;96213.25;;;5.76;100.00
39141;BME280;24875;48.436;10.298;2023-12-20T04:15:25;96209.84;;;5.66;100.00
39141;BME280;24875;48.436;10.298;2023-12-20T04:17:52;96217.41;;;5.69;100.00
39141;BME280;24875;48.436;10.298;2023-12-20T04:20:18;96217.69;;;5.66;100.00
39141;BME280;24875;48.436;10.298;2023-12-20T04:22:46;96225.53;;;5.93;100.00
39141;BME280;24875;48.436;10.298;2023-12-20T04:25:13;96224.25;;;5.80;100.00
39141;BME280;24875;48.436;10.298;2023-12-20T04:27:39;96222.00;;;5.85;100.00
39141;BME280;24875;48.436;10.298;2023-12-20T04:30:07;96232.00;;;5.72;100.00
39141;BME280;24875;48.436;10.298;2023-12-20T04:32:34;96223.47;;;5.70;100.00
39141;BME280;24875;48.436;10.298;2023-12-20T04:35:00;96226.34;;;5.94;100.00
39141;BME280;24875;48.436;10.298;2023-12-20T04:37:27;96235.75;;;5.87;100.00
39141;BME280;24875;48.436;10.298;2023-12-20T04:39:55;96234.63;;;6.06;100.00
39141;BME280;24875;48.436;10.298;2023-12-20T04:42:21;96228.75;;;5.87;100.00
39141;BME280;24875;48.436;10.298;2023-12-20T04:44:48;96236.22;;;6.00;100.00
39141;BME280;24875;48.436;10.298;2023-12-20T04:47:14;96238.97;;;5.98;100.00
39141;BME280;24875;48.436;10.298;2023-12-20T04:49:41;96242.63;;;5.88;100.00
39141;BME280;24875;48.436;10.298;2023-12-20T04:52:07;96252.88;;;5.99;100.00
39141;BME280;24875;48.436;10.298;2023-12-20T04:54:34;96246.22;;;6.04;100.00
39141;BME280;24875;48.436;10.298;2023-12-20T04:57:02;96245.47;;;6.11;100.00
39141;BME280;24875;48.436;10.298;2023-12-20T04:59:28;96251.31;;;6.05;100.00
39141;BME280;24875;48.436;10.298;2023-12-20T05:01:55;96252.56;;;6.02;100.00
39141;BME280;24875;48.436;10.298;2023-12-20T05:04:22;96250.13;;;6.00;100.00
39141;BME280;24875;48.436;10.298;2023-12-20T05:06:49;96254.88;;;6.04;100.00
39141;BME280;24875;48.436;10.298;2023-12-20T05:09:16;96251.00;;;5.91;100.00
39141;BME280;24875;48.436;10.298;2023-12-20T05:11:42;96256.69;;;6.04;100.00
39141;BME280;24875;48.436;10.298;2023-12-20T05:14:10;96252.44;;;6.20;100.00
39141;BME280;24875;48.436;10.298;2023-12-20T05:16:37;96250.88;;;6.10;100.00
39141;BME280;24875;48.436;10.298;2023-12-20T05:19:03;96243.06;;;6.01;100.00
39141;BME280;24875;48.436;10.298;2023-12-20T05:21:31;96250.25;;;5.99;100.00
39141;BME280;24875;48.436;10.298;2023-12-20T05:23:58;96248.75;;;6.13;100.00
39141;BME280;24875;48.436;10.298;2023-12-20T05:26:25;96254.25;;;6.20;100.00
39141;BME280;24875;48.436;10.298;2023-12-20T05:28:51;96259.75;;;6.17;100.00
39141;BME280;24875;48.436;10.298;2023-12-20T05:31:19;96277.22;;;5.99;100.00
39141;BME280;24875;48.436;10.298;2023-12-20T05:33:45;96282.03;;;6.04;100.00
39141;BME280;24875;48.436;10.298;2023-12-20T05:36:12;96298.47;;;6.13;100.00
39141;BME280;24875;48.436;10.298;2023-12-20T05:38:40;96289.88;;;6.04;100.00
39141;BME280;24875;48.436;10.298;2023-12-20T05:41:07;96297.94;;;6.10;100.00
39141;BME280;24875;48.436;10.298;2023-12-20T05:43:33;96298.34;;;6.15;100.00
39141;BME280;24875;48.436;10.298;2023-12-20T05:46:00;96304.50;;;5.97;100.00
39141;BME280;24875;48.436;10.298;2023-12-20T05:48:27;96303.47;;;6.24;100.00
39141;BME280;24875;48.436;10.298;2023-12-20T05:50:54;96312.06;;;6.17;100.00
39141;BME280;24875;48.436;10.298;2023-12-20T05:53:20;96315.59;;;6.25;100.00
39141;BME280;24875;48.436;10.298;2023-12-20T05:55:47;96313.19;;;6.14;100.00
39141;BME280;24875;48.436;10.298;2023-12-20T05:58:13;96311.03;;;6.10;100.00
39141;BME280;24875;48.436;10.298;2023-12-20T06:00:40;96310.88;;;6.11;100.00
39141;BME280;24875;48.436;10.298;2023-12-20T06:03:06;96302.81;;;6.22;100.00
39141;BME280;24875;48.436;10.298;2023-12-20T06:05:34;96313.81;;;6.43;100.00
39141;BME280;24875;48.436;10.298;2023-12-20T06:08:01;96319.09;;;6.34;100.00
39141;BME280;24875;48.436;10.298;2023-12-20T06:10:28;96321.06;;;6.32;100.00
39141;BME280;24875;48.436;10.298;2023-12-20T06:12:55;96324.09;;;6.27;100.00
39141;BME280;24875;48.436;10.298;2023-12-20T06:15:22;96340.09;;;6.24;100.00
39141;BME280;24875;48.436;10.298;2023-12-20T06:17:49;96347.22;;;6.32;100.00
39141;BME280;24875;48.436;10.298;2023-12-20T06:20:15;96348.34;;;6.29;100.00
39141;BME280;24875;48.436;10.298;2023-12-20T06:22:43;96345.22;;;6.43;100.00
39141;BME280;24875;48.436;10.298;2023-12-20T06:25:10;96343.69;;;6.06;100.00
39141;BME280;24875;48.436;10.298;2023-12-20T06:27:36;96332.78;;;6.10;100.00
39141;BME280;24875;48.436;10.298;2023-12-20T06:30:04;96337.28;;;6.35;100.00
39141;BME280;24875;48.436;10.298;2023-12-20T06:32:30;96342.28;;;6.11;100.00
39141;BME280;24875;48.436;10.298;2023-12-20T06:34:57;96346.03;;;6.26;100.00
39141;BME280;24875;48.436;10.298;2023-12-20T06:37:23;96354.78;;;6.17;100.00
39141;BME280;24875;48.436;10.298;2023-12-20T06:39:51;96360.88;;;6.26;100.00
39141;BME280;24875;48.436;10.298;2023-12-20T06:42:18;96348.34;;;6.29;100.00
39141;BME280;24875;48.436;10.298;2023-12-20T06:44:45;96352.69;;;6.38;100.00
39141;BME280;24875;48.436;10.298;2023-12-20T06:47:11;96362.31;;;6.20;100.00
39141;BME280;24875;48.436;10.298;2023-12-20T06:49:39;96372.41;;;6.15;100.00
39141;BME280;24875;48.436;10.298;2023-12-20T06:52:05;96364.94;;;6.20;100.00
39141;BME280;24875;48.436;10.298;2023-12-20T06:54:32;96369.63;;;6.17;100.00
39141;BME280;24875;48.436;10.298;2023-12-20T06:57:00;96369.84;;;6.23;100.00
39141;BME280;24875;48.436;10.298;2023-12-20T06:59:28;96366.28;;;6.24;100.00
39141;BME280;24875;48.436;10.298;2023-12-20T07:01:54;96371.75;;;6.31;100.00
39141;BME280;24875;48.436;10.298;2023-12-20T07:04:21;96372.47;;;6.23;100.00
39141;BME280;24875;48.436;10.298;2023-12-20T07:06:48;96374.94;;;6.25;100.00
39141;BME280;24875;48.436;10.298;2023-12-20T07:09:16;96382.69;;;6.17;100.00
39141;BME280;24875;48.436;10.298;2023-12-20T07:11:42;96373.69;;;6.29;100.00
39141;BME280;24875;48.436;10.298;2023-12-20T07:14:09;96374.81;;;6.26;100.00
39141;BME280;24875;48.436;10.298;2023-12-20T07:16:36;96373.09;;;6.35;100.00
39141;BME280;24875;48.436;10.298;2023-12-20T07:19:02;96380.81;;;6.09;100.00
39141;BME280;24875;48.436;10.298;2023-12-20T07:21:29;96387.91;;;6.26;100.00
39141;BME280;24875;48.436;10.298;2023-12-20T07:23:55;96384.44;;;6.26;100.00
39141;BME280;24875;48.436;10.298;2023-12-20T07:26:22;96394.69;;;6.19;100.00
39141;BME280;24875;48.436;10.298;2023-12-20T07:28:48;96407.66;;;6.11;100.00
39141;BME280;24875;48.436;10.298;2023-12-20T07:31:16;96387.22;;;6.24;100.00
39141;BME280;24875;48.436;10.298;2023-12-20T07:33:43;96407.56;;;6.04;100.00
39141;BME280;24875;48.436;10.298;2023-12-20T07:36:09;96415.44;;;6.04;100.00
39141;BME280;24875;48.436;10.298;2023-12-20T07:38:37;96409.25;;;6.22;100.00
39141;BME280;24875;48.436;10.298;2023-12-20T07:41:03;96416.69;;;6.26;100.00
39141;BME280;24875;48.436;10.298;2023-12-20T07:43:30;96421.84;;;6.09;100.00
39141;BME280;24875;48.436;10.298;2023-12-20T07:45:56;96422.25;;;6.14;100.00
39141;BME280;24875;48.436;10.298;2023-12-20T07:48:24;96427.56;;;6.22;100.00
39141;BME280;24875;48.436;10.298;2023-12-20T07:50:50;96421.13;;;6.16;100.00
39141;BME280;24875;48.436;10.298;2023-12-20T07:53:18;96426.56;;;6.05;100.00
39141;BME280;24875;48.436;10.298;2023-12-20T07:55:44;96430.28;;;6.03;100.00
39141;BME280;24875;48.436;10.298;2023-12-20T07:58:11;96435.25;;;5.97;100.00
39141;BME280;24875;48.436;10.298;2023-12-20T08:00:37;96433.03;;;6.02;100.00
39141;BME280;24875;48.436;10.298;2023-12-20T08:03:04;96439.59;;;6.15;100.00
39141;BME280;24875;48.436;10.298;2023-12-20T08:05:32;96435.38;;;6.31;100.00
39141;BME280;24875;48.436;10.298;2023-12-20T08:07:58;96436.69;;;6.18;100.00
39141;BME280;24875;48.436;10.298;2023-12-20T08:10:25;96438.72;;;6.24;100.00
39141;BME280;24875;48.436;10.298;2023-12-20T08:12:52;96438.28;;;6.28;100.00
39141;BME280;24875;48.436;10.298;2023-12-20T08:15:18;96444.47;;;6.27;100.00
39141;BME280;24875;48.436;10.298;2023-12-20T08:17:45;96435.09;;;6.34;100.00
39141;BME280;24875;48.436;10.298;2023-12-20T08:20:11;96432.00;;;6.39;100.00
39141;BME280;24875;48.436;10.298;2023-12-20T08:22:39;96446.63;;;6.59;100.00
39141;BME280;24875;48.436;10.298;2023-12-20T08:25:06;96449.13;;;6.33;100.00
39141;BME280;24875;48.436;10.298;2023-12-20T08:27:33;96448.56;;;6.39;100.00
39141;BME280;24875;48.436;10.298;2023-12-20T08:30:00;96451.03;;;6.41;100.00
39141;BME280;24875;48.436;10.298;2023-12-20T08:32:26;96451.97;;;6.22;100.00
39141;BME280;24875;48.436;10.298;2023-12-20T08:34:53;96452.94;;;6.21;100.00
39141;BME280;24875;48.436;10.298;2023-12-20T08:37:19;96457.44;;;6.29;100.00
39141;BME280;24875;48.436;10.298;2023-12-20T08:39:47;96452.31;;;6.54;100.00
39141;BME280;24875;48.436;10.298;2023-12-20T08:42:14;96450.56;;;6.45;100.00
39141;BME280;24875;48.436;10.298;2023-12-20T08:44:40;96447.66;;;6.48;100.00
39141;BME280;24875;48.436;10.298;2023-12-20T08:47:07;96447.06;;;6.54;100.00
39141;BME280;24875;48.436;10.298;2023-12-20T08:49:33;96446.13;;;6.28;100.00
39141;BME280;24875;48.436;10.298;2023-12-20T08:52:00;96443.00;;;6.42;100.00
39141;BME280;24875;48.436;10.298;2023-12-20T08:54:26;96448.78;;;6.46;100.00
39141;BME280;24875;48.436;10.298;2023-12-20T08:56:54;96449.25;;;6.59;100.00
39141;BME280;24875;48.436;10.298;2023-12-20T08:59:20;96440.47;;;6.50;100.00
39141;BME280;24875;48.436;10.298;2023-12-20T09:01:47;96453.88;;;6.47;100.00
39141;BME280;24875;48.436;10.298;2023-12-20T09:04:19;96450.09;;;6.76;100.00
39141;BME280;24875;48.436;10.298;2023-12-20T09:06:45;96447.78;;;6.73;100.00
39141;BME280;24875;48.436;10.298;2023-12-20T09:09:12;96443.66;;;6.71;100.00
39141;BME280;24875;48.436;10.298;2023-12-20T09:11:39;96441.72;;;6.73;100.00
39141;BME280;24875;48.436;10.298;2023-12-20T09:14:06;96422.94;;;6.77;100.00
39141;BME280;24875;48.436;10.298;2023-12-20T09:16:33;96427.88;;;6.80;100.00
39141;BME280;24875;48.436;10.298;2023-12-20T09:19:00;96426.16;;;6.71;100.00
39141;BME280;24875;48.436;10.298;2023-12-20T09:21:26;96427.84;;;6.63;100.00
39141;BME280;24875;48.436;10.298;2023-12-20T09:23:53;96428.56;;;6.82;100.00
39141;BME280;24875;48.436;10.298;2023-12-20T09:26:19;96426.22;;;6.97;100.00
39141;BME280;24875;48.436;10.298;2023-12-20T09:28:46;96430.41;;;7.07;100.00
39141;BME280;24875;48.436;10.298;2023-12-20T09:31:14;96422.78;;;6.96;100.00
39141;BME280;24875;48.436;10.298;2023-12-20T09:33:41;96428.75;;;7.06;100.00
39141;BME280;24875;48.436;10.298;2023-12-20T09:36:07;96436.53;;;7.16;100.00
39141;BME280;24875;48.436;10.298;2023-12-20T09:38:34;96425.59;;;7.20;100.00
39141;BME280;24875;48.436;10.298;2023-12-20T09:41:00;96438.09;;;7.09;100.00
39141;BME280;24875;48.436;10.298;2023-12-20T09:43:29;96433.94;;;7.16;100.00
39141;BME280;24875;48.436;10.298;2023-12-20T09:46:00;96434.66;;;7.26;100.00
39141;BME280;24875;48.436;10.298;2023-12-20T09:48:29;96442.59;;;7.33;100.00
39141;BME280;24875;48.436;10.298;2023-12-20T09:50:56;96434.56;;;7.18;100.00
39141;BME280;24875;48.436;10.298;2023-12-20T09:53:24;96430.13;;;7.35;100.00
39141;BME280;24875;48.436;10.298;2023-12-20T09:55:55;96435.31;;;7.45;100.00
39141;BME280;24875;48.436;10.298;2023-12-20T09:58:24;96418.81;;;7.52;100.00
39141;BME280;24875;48.436;10.298;2023-12-20T10:00:51;96421.06;;;7.47;100.00
39141;BME280;24875;48.436;10.298;2023-12-20T10:03:19;96423.03;;;7.53;100.00
39141;BME280;24875;48.436;10.298;2023-12-20T10:05:52;96419.50;;;7.62;100.00
39141;BME280;24875;48.436;10.298;2023-12-20T10:08:21;96421.22;;;7.46;100.00
39141;BME280;24875;48.436;10.298;2023-12-20T10:10:48;96415.88;;;7.55;100.00
39141;BME280;24875;48.436;10.298;2023-12-20T10:13:15;96416.97;;;7.27;100.00
39141;BME280;24875;48.436;10.298;2023-12-20T10:15:42;96423.22;;;6.74;100.00
39141;BME280;24875;48.436;10.298;2023-12-20T10:18:08;96409.63;;;6.71;100.00
39141;BME280;24875;48.436;10.298;2023-12-20T10:20:36;96417.38;;;6.63;100.00
39141;BME280;24875;48.436;10.298;2023-12-20T10:23:04;96408.63;;;6.72;100.00
39141;BME280;24875;48.436;10.298;2023-12-20T10:25:30;96409.78;;;6.69;100.00
39141;BME280;24875;48.436;10.298;2023-12-20T10:28:09;96413.22;;;6.87;100.00
39141;BME280;24875;48.436;10.298;2023-12-20T10:30:36;96409.25;;;6.66;100.00
39141;BME280;24875;48.436;10.298;2023-12-20T10:33:02;96415.19;;;6.41;100.00
39141;BME280;24875;48.436;10.298;2023-12-20T10:35:29;96420.72;;;6.38;100.00
39141;BME280;24875;48.436;10.298;2023-12-20T10:37:56;96425.31;;;6.54;100.00
39141;BME280;24875;48.436;10.298;2023-12-20T10:40:24;96418.41;;;6.53;100.00
39141;BME280;24875;48.436;10.298;2023-12-20T10:42:52;96417.91;;;6.49;100.00
39141;BME280;24875;48.436;10.298;2023-12-20T10:45:19;96416.41;;;6.47;100.00
39141;BME280;24875;48.436;10.298;2023-12-20T10:47:46;96421.50;;;6.48;100.00
39141;BME280;24875;48.436;10.298;2023-12-20T10:50:13;96416.50;;;6.55;100.00
39141;BME280;24875;48.436;10.298;2023-12-20T10:52:41;96413.41;;;6.59;100.00
39141;BME280;24875;48.436;10.298;2023-12-20T10:55:08;96409.44;;;6.55;100.00
39141;BME280;24875;48.436;10.298;2023-12-20T10:57:36;96415.38;;;6.74;100.00
39141;BME280;24875;48.436;10.298;2023-12-20T11:00:06;96423.63;;;6.62;100.00
39141;BME280;24875;48.436;10.298;2023-12-20T11:02:39;96420.69;;;6.65;100.00
39141;BME280;24875;48.436;10.298;2023-12-20T11:05:12;96429.44;;;6.56;100.00
39141;BME280;24875;48.436;10.298;2023-12-20T11:07:47;96407.91;;;6.62;100.00
39141;BME280;24875;48.436;10.298;2023-12-20T11:10:19;96424.03;;;6.58;100.00
39141;BME280;24875;48.436;10.298;2023-12-20T11:12:51;96420.75;;;6.73;100.00
39141;BME280;24875;48.436;10.298;2023-12-20T11:15:20;96423.66;;;6.53;100.00
39141;BME280;24875;48.436;10.298;2023-12-20T11:17:54;96402.28;;;6.74;100.00
39141;BME280;24875;48.436;10.298;2023-12-20T11:20:22;96405.78;;;6.65;100.00
39141;BME280;24875;48.436;10.298;2023-12-20T11:22:53;96409.69;;;6.79;100.00
39141;BME280;24875;48.436;10.298;2023-12-20T11:25:20;96398.31;;;6.70;100.00
39141;BME280;24875;48.436;10.298;2023-12-20T11:28:08;96401.53;;;6.99;100.00
39141;BME280;24875;48.436;10.298;2023-12-20T11:30:42;96410.03;;;7.01;100.00
39141;BME280;24875;48.436;10.298;2023-12-20T11:33:09;96397.03;;;6.92;100.00
39141;BME280;24875;48.436;10.298;2023-12-20T11:35:35;96404.31;;;6.80;100.00
39141;BME280;24875;48.436;10.298;2023-12-20T11:38:02;96404.00;;;7.01;100.00
39141;BME280;24875;48.436;10.298;2023-12-20T11:40:33;96401.28;;;7.35;100.00
39141;BME280;24875;48.436;10.298;2023-12-20T11:43:01;96402.38;;;7.25;100.00
39141;BME280;24875;48.436;10.298;2023-12-20T11:45:27;96409.44;;;7.25;100.00
39141;BME280;24875;48.436;10.298;2023-12-20T11:47:54;96407.94;;;7.22;100.00
39141;BME280;24875;48.436;10.298;2023-12-20T11:50:23;96409.75;;;7.04;100.00
39141;BME280;24875;48.436;10.298;2023-12-20T11:52:51;96416.28;;;6.83;100.00
39141;BME280;24875;48.436;10.298;2023-12-20T11:55:18;96418.59;;;6.68;100.00
39141;BME280;24875;48.436;10.298;2023-12-20T11:57:45;96407.06;;;6.79;100.00
39141;BME280;24875;48.436;10.298;2023-12-20T12:00:15;96415.75;;;6.97;100.00
39141;BME280;24875;48.436;10.298;2023-12-20T12:02:43;96396.13;;;6.83;100.00
39141;BME280;24875;48.436;10.298;2023-12-20T12:05:10;96397.34;;;6.71;100.00
39141;BME280;24875;48.436;10.298;2023-12-20T12:07:36;96397.50;;;6.70;100.00
39141;BME280;24875;48.436;10.298;2023-12-20T12:10:06;96405.63;;;7.02;100.00
39141;BME280;24875;48.436;10.298;2023-12-20T12:12:33;96398.31;;;7.05;100.00
39141;BME280;24875;48.436;10.298;2023-12-20T12:15:04;96397.84;;;7.10;100.00
39141;BME280;24875;48.436;10.298;2023-12-20T12:17:31;96398.75;;;7.01;100.00
39141;BME280;24875;48.436;10.298;2023-12-20T12:20:04;96395.19;;;7.27;100.00
39141;BME280;24875;48.436;10.298;2023-12-20T12:22:33;96391.22;;;7.48;100.00
39141;BME280;24875;48.436;10.298;2023-12-20T12:25:09;96392.09;;;7.82;100.00
39141;BME280;24875;48.436;10.298;2023-12-20T12:27:36;96384.53;;;7.46;100.00
39141;BME280;24875;48.436;10.298;2023-12-20T12:30:05;96386.13;;;7.72;100.00
39141;BME280;24875;48.436;10.298;2023-12-20T12:32:32;96379.34;;;7.62;100.00
39141;BME280;24875;48.436;10.298;2023-12-20T12:34:59;96381.81;;;7.38;100.00
39141;BME280;24875;48.436;10.298;2023-12-20T12:37:27;96376.72;;;7.95;100.00
39141;BME280;24875;48.436;10.298;2023-12-20T12:39:53;96382.31;;;7.59;100.00
39141;BME280;24875;48.436;10.298;2023-12-20T12:42:20;96374.53;;;7.49;100.00
39141;BME280;24875;48.436;10.298;2023-12-20T12:44:47;96386.66;;;7.25;100.00
39141;BME280;24875;48.436;10.298;2023-12-20T12:47:13;96387.19;;;7.28;100.00
39141;BME280;24875;48.436;10.298;2023-12-20T12:49:40;96389.75;;;7.21;100.00